sensor_id;sensor_type;location;lat;lon;timestamp;P1;durP1;ratioP1;P2;durP2;ratioP2
10056;SDS011;5068;51.286;7.518;2024-03-22T00:00:34;11.80;;;7.63;;
10056;SDS011;5068;51.286;7.518;2024-03-22T00:02:06;10.90;;;7.32;;
10056;SDS011;5068;51.286;7.518;2024-03-22T00:03:37;11.52;;;7.22;;
10056;SDS011;5068;51.286;7.518;2024-03-22T00:05:08;15.27;;;7.47;;
10056;SDS011;5068;51.286;7.518;2024-03-22T00:06:41;13.70;;;8.32;;
10056;SDS011;5068;51.286;7.518;2024-03-22T00:08:13;12.70;;;7.10;;
10056;SDS011;5068;51.286;7.518;2024-03-22T00:09:44;12.50;;;7.45;;
10056;SDS011;5068;51.286;7.518;2024-03-22T00:11:16;12.73;;;7.65;;
10056;SDS011;5068;51.286;7.518;2024-03-22T00:12:48;13.18;;;7.68;;
10056;SDS011;5068;51.286;7.518;2024-03-22T00:14:20;15.02;;;8.30;;
10056;SDS011;5068;51.286;7.518;2024-03-22T00:15:51;15.18;;;8.70;;
10056;SDS011;5068;51.286;7.518;2024-03-22T00:17:23;17.50;;;7.90;;
10056;SDS011;5068;51.286;7.518;2024-03-22T00:18:54;14.40;;;7.13;;
10056;SDS011;5068;51.286;7.518;2024-03-22T00:20:26;13.73;;;8.07;;
10056;SDS011;5068;51.286;7.518;2024-03-22T00:21:58;15.07;;;8.23;;
10056;SDS011;5068;51.286;7.518;2024-03-22T00:23:29;15.68;;;7.88;;
10056;SDS011;5068;51.286;7.518;2024-03-22T00:25:01;14.60;;;8.13;;
10056;SDS011;5068;51.286;7.518;2024-03-22T00:26:33;16.40;;;8.70;;
10056;SDS011;5068;51.286;7.518;2024-03-22T00:28:04;14.43;;;8.60;;
10056;SDS011;5068;51.286;7.518;2024-03-22T00:29:36;15.50;;;8.30;;
10056;SDS011;5068;51.286;7.518;2024-03-22T00:31:08;15.57;;;8.77;;
10056;SDS011;5068;51.286;7.518;2024-03-22T00:32:40;13.85;;;7.88;;
10056;SDS011;5068;51.286;7.518;2024-03-22T00:34:15;13.73;;;8.18;;
10056;SDS011;5068;51.286;7.518;2024-03-22T00:35:47;13.90;;;7.50;;
10056;SDS011;5068;51.286;7.518;2024-03-22T00:37:18;14.77;;;7.80;;
10056;SDS011;5068;51.286;7.518;2024-03-22T00:38:50;17.00;;;8.80;;
10056;SDS011;5068;51.286;7.518;2024-03-22T00:40:21;19.80;;;8.82;;
10056;SDS011;5068;51.286;7.518;2024-03-22T00:41:53;15.50;;;8.43;;
10056;SDS011;5068;51.286;7.518;2024-03-22T00:43:24;15.55;;;8.30;;
10056;SDS011;5068;51.286;7.518;2024-03-22T00:44:56;15.88;;;8.20;;
10056;SDS011;5068;51.286;7.518;2024-03-22T00:46:28;17.20;;;8.82;;
10056;SDS011;5068;51.286;7.518;2024-03-22T00:47:59;15.63;;;8.38;;
10056;SDS011;5068;51.286;7.518;2024-03-22T00:49:31;14.63;;;8.07;;
10056;SDS011;5068;51.286;7.518;2024-03-22T00:51:02;17.50;;;9.13;;
10056;SDS011;5068;51.286;7.518;2024-03-22T00:52:34;14.13;;;8.45;;
10056;SDS011;5068;51.286;7.518;2024-03-22T00:54:06;14.52;;;8.10;;
10056;SDS011;5068;51.286;7.518;2024-03-22T00:55:38;14.95;;;8.82;;
10056;SDS011;5068;51.286;7.518;2024-03-22T00:57:09;15.23;;;7.72;;
10056;SDS011;5068;51.286;7.518;2024-03-22T00:58:40;14.32;;;8.30;;
10056;SDS011;5068;51.286;7.518;2024-03-22T01:00:12;19.02;;;8.68;;
10056;SDS011;5068;51.286;7.518;2024-03-22T01:01:45;16.23;;;9.25;;
10056;SDS011;5068;51.286;7.518;2024-03-22T01:03:16;15.63;;;9.23;;
10056;SDS011;5068;51.286;7.518;2024-03-22T01:04:48;16.08;;;8.40;;
10056;SDS011;5068;51.286;7.518;2024-03-22T01:06:19;14.57;;;7.95;;
10056;SDS011;5068;51.286;7.518;2024-03-22T01:07:55;14.40;;;8.02;;
10056;SDS011;5068;51.286;7.518;2024-03-22T01:09:26;16.20;;;8.73;;
10056;SDS011;5068;51.286;7.518;2024-03-22T01:10:59;16.25;;;8.57;;
10056;SDS011;5068;51.286;7.518;2024-03-22T01:12:30;18.50;;;10.02;;
10056;SDS011;5068;51.286;7.518;2024-03-22T01:14:02;14.57;;;8.10;;
10056;SDS011;5068;51.286;7.518;2024-03-22T01:15:33;14.77;;;8.68;;
10056;SDS011;5068;51.286;7.518;2024-03-22T01:17:04;13.90;;;8.32;;
10056;SDS011;5068;51.286;7.518;2024-03-22T01:18:37;14.50;;;7.93;;
10056;SDS011;5068;51.286;7.518;2024-03-22T01:20:09;14.10;;;8.15;;
10056;SDS011;5068;51.286;7.518;2024-03-22T01:21:41;15.32;;;8.07;;
10056;SDS011;5068;51.286;7.518;2024-03-22T01:23:12;15.27;;;8.07;;
10056;SDS011;5068;51.286;7.518;2024-03-22T01:24:44;15.05;;;7.53;;
10056;SDS011;5068;51.286;7.518;2024-03-22T01:26:15;20.75;;;9.70;;
10056;SDS011;5068;51.286;7.518;2024-03-22T01:27:47;16.63;;;8.80;;
10056;SDS011;5068;51.286;7.518;2024-03-22T01:29:18;15.80;;;8.20;;
10056;SDS011;5068;51.286;7.518;2024-03-22T01:30:50;14.70;;;8.32;;
10056;SDS011;5068;51.286;7.518;2024-03-22T01:32:22;16.35;;;8.55;;
10056;SDS011;5068;51.286;7.518;2024-03-22T01:33:53;18.05;;;8.30;;
10056;SDS011;5068;51.286;7.518;2024-03-22T01:35:24;15.13;;;8.93;;
10056;SDS011;5068;51.286;7.518;2024-03-22T01:36:56;15.52;;;7.93;;
10056;SDS011;5068;51.286;7.518;2024-03-22T01:38:27;14.15;;;8.75;;
10056;SDS011;5068;51.286;7.518;2024-03-22T01:39:58;17.00;;;7.90;;
10056;SDS011;5068;51.286;7.518;2024-03-22T01:41:29;13.85;;;8.15;;
10056;SDS011;5068;51.286;7.518;2024-03-22T01:43:01;18.90;;;10.00;;
10056;SDS011;5068;51.286;7.518;2024-03-22T01:44:32;17.15;;;8.43;;
10056;SDS011;5068;51.286;7.518;2024-03-22T01:46:04;18.30;;;9.18;;
10056;SDS011;5068;51.286;7.518;2024-03-22T01:47:38;17.55;;;8.75;;
10056;SDS011;5068;51.286;7.518;2024-03-22T01:49:11;16.60;;;8.68;;
10056;SDS011;5068;51.286;7.518;2024-03-22T01:50:46;16.13;;;8.73;;
10056;SDS011;5068;51.286;7.518;2024-03-22T01:52:18;15.10;;;8.70;;
10056;SDS011;5068;51.286;7.518;2024-03-22T01:53:49;16.95;;;8.43;;
10056;SDS011;5068;51.286;7.518;2024-03-22T01:55:23;13.45;;;8.13;;
10056;SDS011;5068;51.286;7.518;2024-03-22T01:56:55;15.13;;;8.45;;
10056;SDS011;5068;51.286;7.518;2024-03-22T01:58:27;17.60;;;8.10;;
10056;SDS011;5068;51.286;7.518;2024-03-22T01:59:59;15.98;;;8.55;;
10056;SDS011;5068;51.286;7.518;2024-03-22T02:01:31;19.88;;;10.60;;
10056;SDS011;5068;51.286;7.518;2024-03-22T02:03:04;17.92;;;9.52;;
10056;SDS011;5068;51.286;7.518;2024-03-22T02:04:35;15.10;;;8.95;;
10056;SDS011;5068;51.286;7.518;2024-03-22T02:06:07;14.85;;;8.65;;
10056;SDS011;5068;51.286;7.518;2024-03-22T02:07:40;17.00;;;8.63;;
10056;SDS011;5068;51.286;7.518;2024-03-22T02:09:12;17.67;;;8.95;;
10056;SDS011;5068;51.286;7.518;2024-03-22T02:10:45;15.50;;;8.32;;
10056;SDS011;5068;51.286;7.518;2024-03-22T02:12:18;15.32;;;8.80;;
10056;SDS011;5068;51.286;7.518;2024-03-22T02:13:49;14.32;;;8.50;;
10056;SDS011;5068;51.286;7.518;2024-03-22T02:15:20;14.73;;;8.93;;
10056;SDS011;5068;51.286;7.518;2024-03-22T02:16:52;15.27;;;8.30;;
10056;SDS011;5068;51.286;7.518;2024-03-22T02:18:24;14.82;;;7.88;;
10056;SDS011;5068;51.286;7.518;2024-03-22T02:19:55;17.17;;;8.40;;
10056;SDS011;5068;51.286;7.518;2024-03-22T02:21:27;16.40;;;8.20;;
10056;SDS011;5068;51.286;7.518;2024-03-22T02:22:58;15.48;;;7.53;;
10056;SDS011;5068;51.286;7.518;2024-03-22T02:24:29;19.10;;;8.30;;
10056;SDS011;5068;51.286;7.518;2024-03-22T02:26:02;16.50;;;8.70;;
10056;SDS011;5068;51.286;7.518;2024-03-22T02:27:35;13.05;;;8.43;;
10056;SDS011;5068;51.286;7.518;2024-03-22T02:29:08;16.23;;;9.65;;
10056;SDS011;5068;51.286;7.518;2024-03-22T02:30:39;14.30;;;8.35;;
10056;SDS011;5068;51.286;7.518;2024-03-22T02:32:11;16.90;;;9.07;;
10056;SDS011;5068;51.286;7.518;2024-03-22T02:33:42;16.38;;;9.05;;
10056;SDS011;5068;51.286;7.518;2024-03-22T02:35:14;16.60;;;8.93;;
10056;SDS011;5068;51.286;7.518;2024-03-22T02:36:46;16.52;;;8.90;;
10056;SDS011;5068;51.286;7.518;2024-03-22T02:38:18;15.50;;;8.27;;
10056;SDS011;5068;51.286;7.518;2024-03-22T02:39:50;16.95;;;8.60;;
10056;SDS011;5068;51.286;7.518;2024-03-22T02:41:22;16.65;;;8.60;;
10056;SDS011;5068;51.286;7.518;2024-03-22T02:42:53;16.50;;;8.98;;
10056;SDS011;5068;51.286;7.518;2024-03-22T02:44:24;14.38;;;8.43;;
10056;SDS011;5068;51.286;7.518;2024-03-22T02:45:56;14.98;;;8.63;;
10056;SDS011;5068;51.286;7.518;2024-03-22T02:47:27;17.20;;;9.05;;
10056;SDS011;5068;51.286;7.518;2024-03-22T02:48:58;15.35;;;8.18;;
10056;SDS011;5068;51.286;7.518;2024-03-22T02:50:33;16.50;;;8.90;;
10056;SDS011;5068;51.286;7.518;2024-03-22T02:52:06;15.68;;;8.38;;
10056;SDS011;5068;51.286;7.518;2024-03-22T02:53:37;14.90;;;9.07;;
10056;SDS011;5068;51.286;7.518;2024-03-22T02:55:08;17.00;;;8.68;;
10056;SDS011;5068;51.286;7.518;2024-03-22T02:56:40;16.10;;;8.68;;
10056;SDS011;5068;51.286;7.518;2024-03-22T02:58:11;16.63;;;8.80;;
10056;SDS011;5068;51.286;7.518;2024-03-22T02:59:42;14.70;;;8.23;;
10056;SDS011;5068;51.286;7.518;2024-03-22T03:01:14;15.45;;;8.80;;
10056;SDS011;5068;51.286;7.518;2024-03-22T03:02:45;16.00;;;7.38;;
10056;SDS011;5068;51.286;7.518;2024-03-22T03:04:17;18.67;;;9.15;;
10056;SDS011;5068;51.286;7.518;2024-03-22T03:05:48;17.13;;;9.10;;
10056;SDS011;5068;51.286;7.518;2024-03-22T03:07:20;15.32;;;8.07;;
10056;SDS011;5068;51.286;7.518;2024-03-22T03:08:51;14.85;;;8.35;;
10056;SDS011;5068;51.286;7.518;2024-03-22T03:10:23;16.05;;;9.23;;
10056;SDS011;5068;51.286;7.518;2024-03-22T03:11:54;14.05;;;8.45;;
10056;SDS011;5068;51.286;7.518;2024-03-22T03:13:26;16.98;;;8.68;;
10056;SDS011;5068;51.286;7.518;2024-03-22T03:14:59;15.15;;;8.75;;
10056;SDS011;5068;51.286;7.518;2024-03-22T03:16:30;19.10;;;9.95;;
10056;SDS011;5068;51.286;7.518;2024-03-22T03:18:02;15.55;;;7.57;;
10056;SDS011;5068;51.286;7.518;2024-03-22T03:19:33;16.40;;;8.95;;
10056;SDS011;5068;51.286;7.518;2024-03-22T03:21:05;15.38;;;6.90;;
10056;SDS011;5068;51.286;7.518;2024-03-22T03:22:36;14.18;;;8.00;;
10056;SDS011;5068;51.286;7.518;2024-03-22T03:24:07;15.57;;;8.48;;
10056;SDS011;5068;51.286;7.518;2024-03-22T03:25:40;15.30;;;8.80;;
10056;SDS011;5068;51.286;7.518;2024-03-22T03:27:11;15.15;;;8.50;;
10056;SDS011;5068;51.286;7.518;2024-03-22T03:28:43;14.23;;;8.85;;
10056;SDS011;5068;51.286;7.518;2024-03-22T03:30:14;14.68;;;8.45;;
10056;SDS011;5068;51.286;7.518;2024-03-22T03:31:46;14.75;;;8.50;;
10056;SDS011;5068;51.286;7.518;2024-03-22T03:33:17;14.93;;;8.18;;
10056;SDS011;5068;51.286;7.518;2024-03-22T03:34:49;14.45;;;7.75;;
10056;SDS011;5068;51.286;7.518;2024-03-22T03:36:20;13.45;;;7.70;;
10056;SDS011;5068;51.286;7.518;2024-03-22T03:37:52;15.68;;;9.38;;
10056;SDS011;5068;51.286;7.518;2024-03-22T03:39:23;16.05;;;8.70;;
10056;SDS011;5068;51.286;7.518;2024-03-22T03:40:55;15.90;;;8.90;;
10056;SDS011;5068;51.286;7.518;2024-03-22T03:42:26;17.33;;;8.88;;
10056;SDS011;5068;51.286;7.518;2024-03-22T03:43:58;14.82;;;8.80;;
10056;SDS011;5068;51.286;7.518;2024-03-22T03:45:30;17.00;;;8.77;;
10056;SDS011;5068;51.286;7.518;2024-03-22T03:47:02;16.35;;;8.63;;
10056;SDS011;5068;51.286;7.518;2024-03-22T03:48:33;17.40;;;8.63;;
10056;SDS011;5068;51.286;7.518;2024-03-22T03:50:05;17.20;;;9.45;;
10056;SDS011;5068;51.286;7.518;2024-03-22T03:51:36;15.85;;;8.65;;
10056;SDS011;5068;51.286;7.518;2024-03-22T03:53:08;14.68;;;8.35;;
10056;SDS011;5068;51.286;7.518;2024-03-22T03:54:39;14.18;;;7.97;;
10056;SDS011;5068;51.286;7.518;2024-03-22T03:56:11;13.40;;;8.63;;
10056;SDS011;5068;51.286;7.518;2024-03-22T03:57:42;17.30;;;9.35;;
10056;SDS011;5068;51.286;7.518;2024-03-22T03:59:14;15.45;;;6.90;;
10056;SDS011;5068;51.286;7.518;2024-03-22T04:00:45;14.60;;;8.35;;
10056;SDS011;5068;51.286;7.518;2024-03-22T04:02:17;16.27;;;8.60;;
10056;SDS011;5068;51.286;7.518;2024-03-22T04:03:48;18.25;;;8.40;;
10056;SDS011;5068;51.286;7.518;2024-03-22T04:05:20;18.27;;;8.93;;
10056;SDS011;5068;51.286;7.518;2024-03-22T04:06:51;16.63;;;8.45;;
10056;SDS011;5068;51.286;7.518;2024-03-22T04:08:23;15.93;;;8.38;;
10056;SDS011;5068;51.286;7.518;2024-03-22T04:09:56;14.27;;;8.02;;
10056;SDS011;5068;51.286;7.518;2024-03-22T04:11:27;15.60;;;8.38;;
10056;SDS011;5068;51.286;7.518;2024-03-22T04:12:59;14.00;;;8.05;;
10056;SDS011;5068;51.286;7.518;2024-03-22T04:14:31;17.25;;;9.55;;
10056;SDS011;5068;51.286;7.518;2024-03-22T04:16:02;14.60;;;7.85;;
10056;SDS011;5068;51.286;7.518;2024-03-22T04:17:34;17.17;;;9.10;;
10056;SDS011;5068;51.286;7.518;2024-03-22T04:19:05;14.40;;;7.63;;
10056;SDS011;5068;51.286;7.518;2024-03-22T04:20:37;17.85;;;8.65;;
10056;SDS011;5068;51.286;7.518;2024-03-22T04:22:08;13.73;;;7.72;;
10056;SDS011;5068;51.286;7.518;2024-03-22T04:23:40;13.52;;;7.68;;
10056;SDS011;5068;51.286;7.518;2024-03-22T04:25:11;14.68;;;8.23;;
10056;SDS011;5068;51.286;7.518;2024-03-22T04:26:43;15.73;;;7.82;;
10056;SDS011;5068;51.286;7.518;2024-03-22T04:28:14;16.70;;;7.68;;
10056;SDS011;5068;51.286;7.518;2024-03-22T04:29:48;14.70;;;7.57;;
10056;SDS011;5068;51.286;7.518;2024-03-22T04:31:20;14.73;;;7.53;;
10056;SDS011;5068;51.286;7.518;2024-03-22T04:32:52;13.15;;;7.70;;
10056;SDS011;5068;51.286;7.518;2024-03-22T04:34:23;14.27;;;8.05;;
10056;SDS011;5068;51.286;7.518;2024-03-22T04:35:55;13.30;;;7.50;;
10056;SDS011;5068;51.286;7.518;2024-03-22T04:37:27;14.35;;;7.38;;
10056;SDS011;5068;51.286;7.518;2024-03-22T04:38:59;14.02;;;7.15;;
10056;SDS011;5068;51.286;7.518;2024-03-22T04:40:30;14.23;;;7.25;;
10056;SDS011;5068;51.286;7.518;2024-03-22T04:42:02;13.13;;;7.07;;
10056;SDS011;5068;51.286;7.518;2024-03-22T04:43:34;16.35;;;8.48;;
10056;SDS011;5068;51.286;7.518;2024-03-22T04:45:05;13.98;;;8.20;;
10056;SDS011;5068;51.286;7.518;2024-03-22T04:46:37;17.05;;;8.88;;
10056;SDS011;5068;51.286;7.518;2024-03-22T04:48:09;16.02;;;8.23;;
10056;SDS011;5068;51.286;7.518;2024-03-22T04:49:43;12.45;;;7.40;;
10056;SDS011;5068;51.286;7.518;2024-03-22T04:51:14;12.48;;;7.13;;
10056;SDS011;5068;51.286;7.518;2024-03-22T04:52:46;16.50;;;7.55;;
10056;SDS011;5068;51.286;7.518;2024-03-22T04:54:17;15.02;;;7.05;;
10056;SDS011;5068;51.286;7.518;2024-03-22T04:55:49;11.40;;;6.93;;
10056;SDS011;5068;51.286;7.518;2024-03-22T04:57:21;14.52;;;7.38;;
10056;SDS011;5068;51.286;7.518;2024-03-22T04:58:53;13.82;;;7.22;;
10056;SDS011;5068;51.286;7.518;2024-03-22T05:00:26;11.63;;;6.80;;
10056;SDS011;5068;51.286;7.518;2024-03-22T05:01:59;13.20;;;7.10;;
10056;SDS011;5068;51.286;7.518;2024-03-22T05:03:30;15.68;;;7.15;;
10056;SDS011;5068;51.286;7.518;2024-03-22T05:05:02;17.25;;;7.93;;
10056;SDS011;5068;51.286;7.518;2024-03-22T05:06:34;15.88;;;6.93;;
10056;SDS011;5068;51.286;7.518;2024-03-22T05:08:06;14.23;;;7.00;;
10056;SDS011;5068;51.286;7.518;2024-03-22T05:09:38;12.70;;;7.00;;
10056;SDS011;5068;51.286;7.518;2024-03-22T05:11:09;11.77;;;6.88;;
10056;SDS011;5068;51.286;7.518;2024-03-22T05:12:41;16.05;;;7.57;;
10056;SDS011;5068;51.286;7.518;2024-03-22T05:14:12;12.57;;;7.13;;
10056;SDS011;5068;51.286;7.518;2024-03-22T05:15:43;13.73;;;7.55;;
10056;SDS011;5068;51.286;7.518;2024-03-22T05:17:15;11.43;;;6.63;;
10056;SDS011;5068;51.286;7.518;2024-03-22T05:18:47;14.45;;;7.65;;
10056;SDS011;5068;51.286;7.518;2024-03-22T05:20:19;11.82;;;6.88;;
10056;SDS011;5068;51.286;7.518;2024-03-22T05:21:50;13.00;;;8.35;;
10056;SDS011;5068;51.286;7.518;2024-03-22T05:23:22;11.90;;;7.38;;
10056;SDS011;5068;51.286;7.518;2024-03-22T05:24:53;11.98;;;6.35;;
10056;SDS011;5068;51.286;7.518;2024-03-22T05:26:25;12.55;;;7.30;;
10056;SDS011;5068;51.286;7.518;2024-03-22T05:27:57;11.98;;;7.65;;
10056;SDS011;5068;51.286;7.518;2024-03-22T05:29:28;20.45;;;10.10;;
10056;SDS011;5068;51.286;7.518;2024-03-22T05:30:59;14.02;;;7.97;;
10056;SDS011;5068;51.286;7.518;2024-03-22T05:32:31;13.80;;;6.40;;
10056;SDS011;5068;51.286;7.518;2024-03-22T05:34:02;14.88;;;7.45;;
10056;SDS011;5068;51.286;7.518;2024-03-22T05:35:34;14.75;;;6.13;;
10056;SDS011;5068;51.286;7.518;2024-03-22T05:37:05;10.90;;;6.72;;
10056;SDS011;5068;51.286;7.518;2024-03-22T05:38:36;13.02;;;7.35;;
10056;SDS011;5068;51.286;7.518;2024-03-22T05:40:08;12.73;;;6.50;;
10056;SDS011;5068;51.286;7.518;2024-03-22T05:41:40;11.57;;;6.57;;
10056;SDS011;5068;51.286;7.518;2024-03-22T05:43:12;11.48;;;5.93;;
10056;SDS011;5068;51.286;7.518;2024-03-22T05:44:44;13.18;;;6.75;;
10056;SDS011;5068;51.286;7.518;2024-03-22T05:46:16;12.23;;;6.35;;
10056;SDS011;5068;51.286;7.518;2024-03-22T05:47:47;12.30;;;7.03;;
10056;SDS011;5068;51.286;7.518;2024-03-22T05:49:19;13.85;;;6.68;;
10056;SDS011;5068;51.286;7.518;2024-03-22T05:50:50;11.93;;;6.50;;
10056;SDS011;5068;51.286;7.518;2024-03-22T05:52:23;11.18;;;6.68;;
10056;SDS011;5068;51.286;7.518;2024-03-22T05:53:54;11.13;;;6.13;;
10056;SDS011;5068;51.286;7.518;2024-03-22T05:55:27;11.75;;;6.60;;
10056;SDS011;5068;51.286;7.518;2024-03-22T05:57:02;13.13;;;6.75;;
10056;SDS011;5068;51.286;7.518;2024-03-22T05:58:35;10.35;;;6.05;;
10056;SDS011;5068;51.286;7.518;2024-03-22T06:00:07;11.27;;;6.22;;
10056;SDS011;5068;51.286;7.518;2024-03-22T06:01:39;12.32;;;6.32;;
10056;SDS011;5068;51.286;7.518;2024-03-22T06:03:10;11.50;;;6.50;;
10056;SDS011;5068;51.286;7.518;2024-03-22T06:04:41;10.68;;;5.78;;
10056;SDS011;5068;51.286;7.518;2024-03-22T06:06:13;12.00;;;6.70;;
10056;SDS011;5068;51.286;7.518;2024-03-22T06:07:45;11.45;;;6.05;;
10056;SDS011;5068;51.286;7.518;2024-03-22T06:09:16;14.75;;;7.15;;
10056;SDS011;5068;51.286;7.518;2024-03-22T06:10:54;11.88;;;6.97;;
10056;SDS011;5068;51.286;7.518;2024-03-22T06:12:29;12.68;;;6.22;;
10056;SDS011;5068;51.286;7.518;2024-03-22T06:14:00;12.65;;;6.25;;
10056;SDS011;5068;51.286;7.518;2024-03-22T06:15:32;13.40;;;7.40;;
10056;SDS011;5068;51.286;7.518;2024-03-22T06:17:04;11.30;;;6.30;;
10056;SDS011;5068;51.286;7.518;2024-03-22T06:18:35;10.30;;;6.25;;
10056;SDS011;5068;51.286;7.518;2024-03-22T06:20:11;12.93;;;6.07;;
10056;SDS011;5068;51.286;7.518;2024-03-22T06:21:43;10.80;;;5.90;;
10056;SDS011;5068;51.286;7.518;2024-03-22T06:23:14;10.07;;;6.45;;
10056;SDS011;5068;51.286;7.518;2024-03-22T06:24:45;10.57;;;6.00;;
10056;SDS011;5068;51.286;7.518;2024-03-22T06:26:17;9.40;;;6.25;;
10056;SDS011;5068;51.286;7.518;2024-03-22T06:27:49;12.13;;;6.97;;
10056;SDS011;5068;51.286;7.518;2024-03-22T06:29:21;10.75;;;6.43;;
10056;SDS011;5068;51.286;7.518;2024-03-22T06:30:52;10.70;;;6.28;;
10056;SDS011;5068;51.286;7.518;2024-03-22T06:32:24;11.52;;;7.18;;
10056;SDS011;5068;51.286;7.518;2024-03-22T06:33:55;13.20;;;7.07;;
10056;SDS011;5068;51.286;7.518;2024-03-22T06:35:32;11.27;;;7.22;;
10056;SDS011;5068;51.286;7.518;2024-03-22T06:37:06;9.90;;;5.82;;
10056;SDS011;5068;51.286;7.518;2024-03-22T06:38:37;10.68;;;6.72;;
10056;SDS011;5068;51.286;7.518;2024-03-22T06:40:09;10.82;;;7.10;;
10056;SDS011;5068;51.286;7.518;2024-03-22T06:41:41;11.98;;;7.63;;
10056;SDS011;5068;51.286;7.518;2024-03-22T06:43:13;10.77;;;7.18;;
10056;SDS011;5068;51.286;7.518;2024-03-22T06:44:44;9.95;;;6.50;;
10056;SDS011;5068;51.286;7.518;2024-03-22T06:46:15;11.45;;;6.65;;
10056;SDS011;5068;51.286;7.518;2024-03-22T06:47:53;8.32;;;5.73;;
10056;SDS011;5068;51.286;7.518;2024-03-22T06:49:29;9.65;;;6.62;;
10056;SDS011;5068;51.286;7.518;2024-03-22T06:51:01;12.13;;;7.20;;
10056;SDS011;5068;51.286;7.518;2024-03-22T06:52:32;11.27;;;6.63;;
10056;SDS011;5068;51.286;7.518;2024-03-22T06:54:04;11.07;;;6.72;;
10056;SDS011;5068;51.286;7.518;2024-03-22T06:55:36;11.90;;;6.93;;
10056;SDS011;5068;51.286;7.518;2024-03-22T06:57:07;13.60;;;8.38;;
10056;SDS011;5068;51.286;7.518;2024-03-22T06:58:39;13.02;;;8.43;;
10056;SDS011;5068;51.286;7.518;2024-03-22T07:00:10;15.77;;;8.50;;
10056;SDS011;5068;51.286;7.518;2024-03-22T07:01:43;13.32;;;8.30;;
10056;SDS011;5068;51.286;7.518;2024-03-22T07:03:16;12.73;;;8.10;;
10056;SDS011;5068;51.286;7.518;2024-03-22T07:04:48;13.68;;;9.23;;
10056;SDS011;5068;51.286;7.518;2024-03-22T07:06:19;14.32;;;8.73;;
10056;SDS011;5068;51.286;7.518;2024-03-22T07:07:51;14.75;;;9.60;;
10056;SDS011;5068;51.286;7.518;2024-03-22T07:09:26;14.25;;;9.82;;
10056;SDS011;5068;51.286;7.518;2024-03-22T07:11:04;11.55;;;8.90;;
10056;SDS011;5068;51.286;7.518;2024-03-22T07:12:37;14.82;;;9.00;;
10056;SDS011;5068;51.286;7.518;2024-03-22T07:14:08;15.18;;;9.65;;
10056;SDS011;5068;51.286;7.518;2024-03-22T07:15:39;14.88;;;9.88;;
10056;SDS011;5068;51.286;7.518;2024-03-22T07:17:11;16.50;;;9.20;;
10056;SDS011;5068;51.286;7.518;2024-03-22T07:18:42;15.63;;;8.82;;
10056;SDS011;5068;51.286;7.518;2024-03-22T07:20:14;14.63;;;9.50;;
10056;SDS011;5068;51.286;7.518;2024-03-22T07:21:45;15.40;;;10.38;;
10056;SDS011;5068;51.286;7.518;2024-03-22T07:23:17;15.02;;;9.38;;
10056;SDS011;5068;51.286;7.518;2024-03-22T07:24:49;15.52;;;9.32;;
10056;SDS011;5068;51.286;7.518;2024-03-22T07:26:21;13.93;;;9.65;;
10056;SDS011;5068;51.286;7.518;2024-03-22T07:27:54;13.75;;;8.98;;
10056;SDS011;5068;51.286;7.518;2024-03-22T07:29:25;16.25;;;10.68;;
10056;SDS011;5068;51.286;7.518;2024-03-22T07:30:56;15.70;;;9.93;;
10056;SDS011;5068;51.286;7.518;2024-03-22T07:32:28;13.60;;;9.70;;
10056;SDS011;5068;51.286;7.518;2024-03-22T07:34:01;14.23;;;9.65;;
10056;SDS011;5068;51.286;7.518;2024-03-22T07:35:34;15.50;;;10.30;;
10056;SDS011;5068;51.286;7.518;2024-03-22T07:37:05;15.25;;;9.63;;
10056;SDS011;5068;51.286;7.518;2024-03-22T07:38:37;17.30;;;10.57;;
10056;SDS011;5068;51.286;7.518;2024-03-22T07:40:09;14.63;;;9.63;;
10056;SDS011;5068;51.286;7.518;2024-03-22T07:41:40;15.60;;;9.95;;
10056;SDS011;5068;51.286;7.518;2024-03-22T07:43:12;15.00;;;9.70;;
10056;SDS011;5068;51.286;7.518;2024-03-22T07:44:45;15.27;;;9.57;;
10056;SDS011;5068;51.286;7.518;2024-03-22T07:46:16;15.77;;;10.20;;
10056;SDS011;5068;51.286;7.518;2024-03-22T07:47:48;14.75;;;10.35;;
10056;SDS011;5068;51.286;7.518;2024-03-22T07:49:19;16.98;;;10.10;;
10056;SDS011;5068;51.286;7.518;2024-03-22T07:51:00;13.68;;;10.30;;
10056;SDS011;5068;51.286;7.518;2024-03-22T07:52:32;15.27;;;9.60;;
10056;SDS011;5068;51.286;7.518;2024-03-22T07:54:03;14.73;;;10.57;;
10056;SDS011;5068;51.286;7.518;2024-03-22T07:55:35;14.82;;;9.77;;
10056;SDS011;5068;51.286;7.518;2024-03-22T07:57:06;15.02;;;10.32;;
10056;SDS011;5068;51.286;7.518;2024-03-22T07:58:38;15.45;;;9.77;;
10056;SDS011;5068;51.286;7.518;2024-03-22T08:00:10;15.20;;;10.05;;
10056;SDS011;5068;51.286;7.518;2024-03-22T08:03:17;13.57;;;9.82;;
10056;SDS011;5068;51.286;7.518;2024-03-22T08:04:48;14.02;;;9.80;;
10056;SDS011;5068;51.286;7.518;2024-03-22T08:06:20;14.90;;;10.10;;
10056;SDS011;5068;51.286;7.518;2024-03-22T08:07:52;12.77;;;9.02;;
10056;SDS011;5068;51.286;7.518;2024-03-22T08:09:23;15.93;;;10.27;;
10056;SDS011;5068;51.286;7.518;2024-03-22T08:10:55;14.57;;;9.07;;
10056;SDS011;5068;51.286;7.518;2024-03-22T08:12:26;17.13;;;10.00;;
10056;SDS011;5068;51.286;7.518;2024-03-22T08:13:58;16.27;;;10.05;;
10056;SDS011;5068;51.286;7.518;2024-03-22T08:15:33;16.98;;;10.45;;
10056;SDS011;5068;51.286;7.518;2024-03-22T08:17:07;15.18;;;10.00;;
10056;SDS011;5068;51.286;7.518;2024-03-22T08:18:39;13.40;;;9.23;;
10056;SDS011;5068;51.286;7.518;2024-03-22T08:20:10;16.58;;;10.23;;
10056;SDS011;5068;51.286;7.518;2024-03-22T08:21:41;14.32;;;10.85;;
10056;SDS011;5068;51.286;7.518;2024-03-22T08:23:12;15.00;;;10.43;;
10056;SDS011;5068;51.286;7.518;2024-03-22T08:24:43;17.23;;;10.75;;
10056;SDS011;5068;51.286;7.518;2024-03-22T08:26:15;15.73;;;9.82;;
10056;SDS011;5068;51.286;7.518;2024-03-22T08:27:46;14.02;;;10.23;;
10056;SDS011;5068;51.286;7.518;2024-03-22T08:29:17;16.17;;;9.98;;
10056;SDS011;5068;51.286;7.518;2024-03-22T08:30:49;17.55;;;10.93;;
10056;SDS011;5068;51.286;7.518;2024-03-22T08:32:20;14.32;;;10.07;;
10056;SDS011;5068;51.286;7.518;2024-03-22T08:33:51;17.00;;;10.38;;
10056;SDS011;5068;51.286;7.518;2024-03-22T08:35:22;16.33;;;10.35;;
10056;SDS011;5068;51.286;7.518;2024-03-22T08:36:53;14.00;;;9.90;;
10056;SDS011;5068;51.286;7.518;2024-03-22T08:38:25;12.60;;;9.70;;
10056;SDS011;5068;51.286;7.518;2024-03-22T08:39:57;16.58;;;10.00;;
10056;SDS011;5068;51.286;7.518;2024-03-22T08:41:28;13.60;;;9.13;;
10056;SDS011;5068;51.286;7.518;2024-03-22T08:42:59;11.75;;;8.63;;
10056;SDS011;5068;51.286;7.518;2024-03-22T08:44:32;13.27;;;9.02;;
10056;SDS011;5068;51.286;7.518;2024-03-22T08:46:04;11.90;;;8.40;;
10056;SDS011;5068;51.286;7.518;2024-03-22T08:47:35;14.55;;;8.60;;
10056;SDS011;5068;51.286;7.518;2024-03-22T08:49:06;13.52;;;8.35;;
10056;SDS011;5068;51.286;7.518;2024-03-22T08:50:37;15.30;;;8.88;;
10056;SDS011;5068;51.286;7.518;2024-03-22T08:52:08;15.32;;;8.40;;
10056;SDS011;5068;51.286;7.518;2024-03-22T08:53:39;12.07;;;7.70;;
10056;SDS011;5068;51.286;7.518;2024-03-22T08:55:10;13.85;;;8.65;;
10056;SDS011;5068;51.286;7.518;2024-03-22T08:56:42;12.68;;;7.82;;
10056;SDS011;5068;51.286;7.518;2024-03-22T08:58:13;15.52;;;8.98;;
10056;SDS011;5068;51.286;7.518;2024-03-22T08:59:45;11.85;;;8.07;;
10056;SDS011;5068;51.286;7.518;2024-03-22T09:01:16;11.30;;;7.95;;
10056;SDS011;5068;51.286;7.518;2024-03-22T09:02:47;12.57;;;7.30;;
10056;SDS011;5068;51.286;7.518;2024-03-22T09:04:19;15.02;;;8.32;;
10056;SDS011;5068;51.286;7.518;2024-03-22T09:05:53;12.75;;;7.85;;
10056;SDS011;5068;51.286;7.518;2024-03-22T09:07:24;10.57;;;7.63;;
10056;SDS011;5068;51.286;7.518;2024-03-22T09:08:55;11.98;;;7.38;;
10056;SDS011;5068;51.286;7.518;2024-03-22T09:10:28;8.77;;;7.07;;
10056;SDS011;5068;51.286;7.518;2024-03-22T09:11:59;11.02;;;7.38;;
10056;SDS011;5068;51.286;7.518;2024-03-22T09:13:30;8.95;;;6.85;;
10056;SDS011;5068;51.286;7.518;2024-03-22T09:15:02;9.68;;;6.45;;